Página principal
Imagens de satélite Previsões 10 diasClimaMeteorologia maritima Ciclones Descargas eléctricas AeroportosFAQ Notícias Sobre
Tempo : Europa África América do Norte América do Sul Ásia Austrália-Oceania Outros
Línguas Contacto

Belo Horizonte, Minas Gerais, Brasil

Aeroporto Internacional de Belo Horizonte-Confins

latitude: 19-56S, longitude: 043-56W, altura: 850 m


METAR: SBCF 041100Z 13002KT CAVOK 15/11 Q1024
TAF: SBCF 041100Z 0412/0512 07006KT CAVOK TX26/0417Z TN12/0508Z BECMG 0414/0416 13005KT BECMG 0501/0503 09005KT RMK PEM

Hora: 08:40 (11:40 UTC)

Observação actual do tempo

O boletim foi feito há 40 minutos, às 11:00 UTC
Vento 2 kt de sudeste
Temperatura 15°C
Humidade 77%
Pressão 1024 hPa
Visibilidade 10 km ou mais
sem nuvens abaixo de 1500 metros e sem cumulonimbus

Mudar unidades

Previsão

O boletim foi feito há 40 minutos, às 11:00 UTC
Previsão válida de 04 às 12 UTC a 05 às 12 UTC
Vento 6 kt de es-nordeste
Visibilidade 10 km ou mais
sem nuvens abaixo de 1500 metros e sem cumulonimbus
Tornando-se
de 04 às 14 UTC a 04 às 16 UTC
Vento 5 kt de sudeste
Tornando-se
de 05 às 01 UTC a 05 às 03 UTC
Vento 5 kt de este
As informações contidas neste sítio estão sujeitas a uma declaração de exoneração de responsabilidade
Tempo : Europa África América do Norte América do Sul Ásia Austrália-Oceania Outros
Imagens de satélite Previsões 10 diasClimaMeteorologia maritima Ciclones Descargas eléctricas AeroportosFAQ Línguas Contacto Notícias Sobre